Adrian, Washington
Current Conditions -  °F | °C
As of 3:53 AM on Friday 24 Oct 2014 (Local Time) from KEPH Reporting Station
Overcast Overcast  
Wind Chill: 43°   Ceiling: 10000
Heat Index: 43°   Visibility: 10mi
Dew Point: 39°   Wind: 3mph
Humidity: 86%   Direction: 350°N
Pressure: 30.01"   Gusts: NA
Location:  47.4314°N, 119.485°W
Report Text: KEPH 241053Z AUTO 35003KT 10SM OVC100 06/04 A3001 RMK AO2 SLP165 T00610039
Loading
Personal Weather Stations






























Interactive Weather Map New forecast layout! Learn more

10-Day Weather Forecast

Advertisements
Track Severe Weather on mobile